sensor_id;sensor_type;location;lat;lon;timestamp;pressure;altitude;pressure_sealevel;temperature;humidity
51439;BME280;38816;51.142;-0.974;2022-07-23T00:00:05;100488.53;;;16.19;100.00
51439;BME280;38816;51.142;-0.974;2022-07-23T00:02:31;100478.16;;;16.19;99.58
51439;BME280;38816;51.142;-0.974;2022-07-23T00:04:56;100487.66;;;16.23;99.61
51439;BME280;38816;51.142;-0.974;2022-07-23T00:07:22;100483.34;;;16.19;99.67
51439;BME280;38816;51.142;-0.974;2022-07-23T00:09:47;100487.66;;;16.26;99.05
51439;BME280;38816;51.142;-0.974;2022-07-23T00:12:13;100483.31;;;16.28;98.76
51439;BME280;38816;51.142;-0.974;2022-07-23T00:14:38;100474.66;;;16.32;98.04
51439;BME280;38816;51.142;-0.974;2022-07-23T00:17:04;100485.91;;;16.30;97.92
51439;BME280;38816;51.142;-0.974;2022-07-23T00:19:29;100480.78;;;16.17;97.81
51439;BME280;38816;51.142;-0.974;2022-07-23T00:21:55;100483.38;;;16.11;98.29
51439;BME280;38816;51.142;-0.974;2022-07-23T00:24:20;100481.66;;;16.04;98.81
51439;BME280;38816;51.142;-0.974;2022-07-23T00:26:45;100483.38;;;15.98;99.35
51439;BME280;38816;51.142;-0.974;2022-07-23T00:29:11;100474.75;;;15.89;99.76
51439;BME280;38816;51.142;-0.974;2022-07-23T00:31:37;100486.84;;;15.97;100.00
51439;BME280;38816;51.142;-0.974;2022-07-23T00:34:02;100467.84;;;15.91;100.00
51439;BME280;38816;51.142;-0.974;2022-07-23T00:36:28;100478.22;;;16.01;100.00
51439;BME280;38816;51.142;-0.974;2022-07-23T00:38:53;100472.16;;;16.03;100.00
51439;BME280;38816;51.142;-0.974;2022-07-23T00:41:19;100467.84;;;16.01;100.00
51439;BME280;38816;51.142;-0.974;2022-07-23T00:43:45;100463.53;;;15.95;100.00
51439;BME280;38816;51.142;-0.974;2022-07-23T00:46:11;100469.56;;;15.92;100.00
51439;BME280;38816;51.142;-0.974;2022-07-23T00:48:36;100459.19;;;15.89;100.00
51439;BME280;38816;51.142;-0.974;2022-07-23T00:51:02;100472.19;;;15.83;100.00
51439;BME280;38816;51.142;-0.974;2022-07-23T00:53:28;100458.41;;;15.67;100.00
51439;BME280;38816;51.142;-0.974;2022-07-23T00:55:54;100464.41;;;15.63;100.00
51439;BME280;38816;51.142;-0.974;2022-07-23T00:58:20;100457.47;;;15.49;100.00
51439;BME280;38816;51.142;-0.974;2022-07-23T01:00:45;100469.59;;;15.47;100.00
51439;BME280;38816;51.142;-0.974;2022-07-23T01:03:11;100476.47;;;15.35;100.00
51439;BME280;38816;51.142;-0.974;2022-07-23T01:05:37;100478.22;;;15.29;100.00
51439;BME280;38816;51.142;-0.974;2022-07-23T01:08:05;100485.13;;;15.28;100.00
51439;BME280;38816;51.142;-0.974;2022-07-23T01:10:30;100480.78;;;15.15;100.00
51439;BME280;38816;51.142;-0.974;2022-07-23T01:13:06;100493.72;;;15.12;100.00
51439;BME280;38816;51.142;-0.974;2022-07-23T01:15:33;100480.78;;;15.00;100.00
51439;BME280;38816;51.142;-0.974;2022-07-23T01:17:59;100482.47;;;14.94;100.00
51439;BME280;38816;51.142;-0.974;2022-07-23T01:20:28;100473.00;;;14.90;100.00
51439;BME280;38816;51.142;-0.974;2022-07-23T01:22:54;100477.28;;;14.94;100.00
51439;BME280;38816;51.142;-0.974;2022-07-23T01:25:20;100474.72;;;14.98;100.00
51439;BME280;38816;51.142;-0.974;2022-07-23T01:27:46;100466.94;;;14.93;100.00
51439;BME280;38816;51.142;-0.974;2022-07-23T01:30:13;100468.66;;;14.92;100.00
51439;BME280;38816;51.142;-0.974;2022-07-23T01:32:38;100472.97;;;14.93;100.00
51439;BME280;38816;51.142;-0.974;2022-07-23T01:35:05;100471.22;;;14.83;100.00
51439;BME280;38816;51.142;-0.974;2022-07-23T01:37:31;100485.06;;;14.87;100.00
51439;BME280;38816;51.142;-0.974;2022-07-23T01:39:56;100482.44;;;14.85;100.00
51439;BME280;38816;51.142;-0.974;2022-07-23T01:42:22;100485.03;;;14.82;100.00
51439;BME280;38816;51.142;-0.974;2022-07-23T01:44:48;100473.78;;;14.76;100.00
51439;BME280;38816;51.142;-0.974;2022-07-23T01:47:14;100478.09;;;14.75;100.00
51439;BME280;38816;51.142;-0.974;2022-07-23T01:49:39;100477.22;;;14.70;100.00
51439;BME280;38816;51.142;-0.974;2022-07-23T01:52:05;100479.81;;;14.70;100.00
51439;BME280;38816;51.142;-0.974;2022-07-23T01:54:34;100461.66;;;14.58;100.00
51439;BME280;38816;51.142;-0.974;2022-07-23T01:57:00;100468.56;;;14.60;100.00
51439;BME280;38816;51.142;-0.974;2022-07-23T01:59:27;100476.34;;;14.62;100.00
51439;BME280;38816;51.142;-0.974;2022-07-23T02:01:53;100467.66;;;14.54;100.00
51439;BME280;38816;51.142;-0.974;2022-07-23T02:04:23;100478.91;;;14.56;100.00
51439;BME280;38816;51.142;-0.974;2022-07-23T02:06:49;100477.13;;;14.49;100.00
51439;BME280;38816;51.142;-0.974;2022-07-23T02:09:14;100468.47;;;14.42;100.00
51439;BME280;38816;51.142;-0.974;2022-07-23T02:11:40;100470.16;;;14.38;100.00
51439;BME280;38816;51.142;-0.974;2022-07-23T02:14:05;100470.16;;;14.40;100.00
51439;BME280;38816;51.142;-0.974;2022-07-23T02:16:31;100476.22;;;14.39;100.00
51439;BME280;38816;51.142;-0.974;2022-07-23T02:18:56;100475.31;;;14.34;100.00
51439;BME280;38816;51.142;-0.974;2022-07-23T02:21:22;100480.47;;;14.29;100.00
51439;BME280;38816;51.142;-0.974;2022-07-23T02:23:47;100468.34;;;14.21;100.00
51439;BME280;38816;51.142;-0.974;2022-07-23T02:26:13;100482.16;;;14.21;100.00
51439;BME280;38816;51.142;-0.974;2022-07-23T02:28:38;100479.53;;;14.15;100.00
51439;BME280;38816;51.142;-0.974;2022-07-23T02:31:04;100482.09;;;14.10;100.00
51439;BME280;38816;51.142;-0.974;2022-07-23T02:33:30;100486.34;;;14.04;100.00
51439;BME280;38816;51.142;-0.974;2022-07-23T02:35:56;100477.69;;;13.96;100.00
51439;BME280;38816;51.142;-0.974;2022-07-23T02:38:21;100482.81;;;13.89;100.00
51439;BME280;38816;51.142;-0.974;2022-07-23T02:40:46;100470.69;;;13.79;100.00
51439;BME280;38816;51.142;-0.974;2022-07-23T02:43:12;100475.88;;;13.79;100.00
51439;BME280;38816;51.142;-0.974;2022-07-23T02:45:37;100461.13;;;13.64;100.00
51439;BME280;38816;51.142;-0.974;2022-07-23T02:48:03;100478.38;;;13.70;100.00
51439;BME280;38816;51.142;-0.974;2022-07-23T02:50:29;100480.06;;;13.65;100.00
51439;BME280;38816;51.142;-0.974;2022-07-23T02:52:54;100471.41;;;13.58;100.00
51439;BME280;38816;51.142;-0.974;2022-07-23T02:55:20;100480.88;;;13.58;100.00
51439;BME280;38816;51.142;-0.974;2022-07-23T02:57:45;100478.22;;;13.49;100.00
51439;BME280;38816;51.142;-0.974;2022-07-23T03:00:11;100484.22;;;13.48;100.00
51439;BME280;38816;51.142;-0.974;2022-07-23T03:02:36;100488.50;;;13.44;100.00
51439;BME280;38816;51.142;-0.974;2022-07-23T03:05:02;100478.97;;;13.35;100.00
51439;BME280;38816;51.142;-0.974;2022-07-23T03:07:28;100484.13;;;13.37;100.00
51439;BME280;38816;51.142;-0.974;2022-07-23T03:09:53;100487.56;;;13.34;100.00
51439;BME280;38816;51.142;-0.974;2022-07-23T03:12:19;100466.81;;;13.25;100.00
51439;BME280;38816;51.142;-0.974;2022-07-23T03:14:44;100492.69;;;13.31;100.00
51439;BME280;38816;51.142;-0.974;2022-07-23T03:17:09;100479.69;;;13.24;100.00
51439;BME280;38816;51.142;-0.974;2022-07-23T03:19:35;100486.56;;;13.23;100.00
51439;BME280;38816;51.142;-0.974;2022-07-23T03:22:02;100479.63;;;13.19;100.00
51439;BME280;38816;51.142;-0.974;2022-07-23T03:24:27;100475.28;;;13.13;100.00
51439;BME280;38816;51.142;-0.974;2022-07-23T03:27:13;100484.78;;;13.16;100.00
51439;BME280;38816;51.142;-0.974;2022-07-23T03:29:39;100481.25;;;13.08;100.00
51439;BME280;38816;51.142;-0.974;2022-07-23T03:32:05;100486.41;;;13.09;100.00
51439;BME280;38816;51.142;-0.974;2022-07-23T03:34:30;100479.47;;;13.05;100.00
51439;BME280;38816;51.142;-0.974;2022-07-23T03:36:56;100483.78;;;13.05;100.00
51439;BME280;38816;51.142;-0.974;2022-07-23T03:39:21;100482.06;;;13.05;100.00
51439;BME280;38816;51.142;-0.974;2022-07-23T03:41:46;100481.19;;;13.03;100.00
51439;BME280;38816;51.142;-0.974;2022-07-23T03:44:12;100475.09;;;12.93;100.00
51439;BME280;38816;51.142;-0.974;2022-07-23T03:46:37;100476.75;;;12.88;100.00
51439;BME280;38816;51.142;-0.974;2022-07-23T03:49:03;100473.25;;;12.85;100.00
51439;BME280;38816;51.142;-0.974;2022-07-23T03:51:28;100477.56;;;12.84;100.00
51439;BME280;38816;51.142;-0.974;2022-07-23T03:53:54;100483.59;;;12.83;100.00
51439;BME280;38816;51.142;-0.974;2022-07-23T03:56:20;100481.78;;;12.76;100.00
51439;BME280;38816;51.142;-0.974;2022-07-23T03:58:46;100478.22;;;12.66;100.00
51439;BME280;38816;51.142;-0.974;2022-07-23T04:01:11;100485.09;;;12.66;100.00
51439;BME280;38816;51.142;-0.974;2022-07-23T04:03:37;100476.31;;;12.52;100.00
51439;BME280;38816;51.142;-0.974;2022-07-23T04:06:02;100475.47;;;12.53;100.00
51439;BME280;38816;51.142;-0.974;2022-07-23T04:08:28;100465.84;;;12.39;100.00
51439;BME280;38816;51.142;-0.974;2022-07-23T04:10:55;100487.41;;;12.46;100.00
51439;BME280;38816;51.142;-0.974;2022-07-23T04:13:20;100495.91;;;12.37;100.00
51439;BME280;38816;51.142;-0.974;2022-07-23T04:15:46;100489.00;;;12.35;100.00
51439;BME280;38816;51.142;-0.974;2022-07-23T04:18:12;100491.41;;;12.24;100.00
51439;BME280;38816;51.142;-0.974;2022-07-23T04:20:37;100494.06;;;12.27;100.00
51439;BME280;38816;51.142;-0.974;2022-07-23T04:23:03;100481.91;;;12.19;100.00
51439;BME280;38816;51.142;-0.974;2022-07-23T04:25:28;100497.44;;;12.25;100.00
51439;BME280;38816;51.142;-0.974;2022-07-23T04:27:53;100492.22;;;12.20;100.00
51439;BME280;38816;51.142;-0.974;2022-07-23T04:30:19;100489.66;;;12.20;100.00
51439;BME280;38816;51.142;-0.974;2022-07-23T04:32:44;100501.66;;;12.20;100.00
51439;BME280;38816;51.142;-0.974;2022-07-23T04:35:10;100510.25;;;12.19;100.00
51439;BME280;38816;51.142;-0.974;2022-07-23T04:37:35;100497.28;;;12.12;100.00
51439;BME280;38816;51.142;-0.974;2022-07-23T04:40:01;100489.59;;;12.15;100.00
51439;BME280;38816;51.142;-0.974;2022-07-23T04:42:26;100500.00;;;12.25;100.00
51439;BME280;38816;51.142;-0.974;2022-07-23T04:44:52;100483.66;;;12.21;100.00
51439;BME280;38816;51.142;-0.974;2022-07-23T04:47:17;100494.00;;;12.23;100.00
51439;BME280;38816;51.142;-0.974;2022-07-23T04:49:42;100495.75;;;12.27;100.00
51439;BME280;38816;51.142;-0.974;2022-07-23T04:52:08;100495.84;;;12.33;100.00
51439;BME280;38816;51.142;-0.974;2022-07-23T04:54:34;100501.91;;;12.35;100.00
51439;BME280;38816;51.142;-0.974;2022-07-23T04:56:59;100495.88;;;12.36;100.00
51439;BME280;38816;51.142;-0.974;2022-07-23T04:59:25;100501.97;;;12.39;100.00
51439;BME280;38816;51.142;-0.974;2022-07-23T05:01:50;100500.28;;;12.43;100.00
51439;BME280;38816;51.142;-0.974;2022-07-23T05:04:16;100491.66;;;12.41;100.00
51439;BME280;38816;51.142;-0.974;2022-07-23T05:06:41;100496.00;;;12.45;100.00
51439;BME280;38816;51.142;-0.974;2022-07-23T05:09:07;100502.09;;;12.52;100.00
51439;BME280;38816;51.142;-0.974;2022-07-23T05:11:32;100490.03;;;12.48;100.00
51439;BME280;38816;51.142;-0.974;2022-07-23T05:13:57;100507.28;;;12.55;100.00
51439;BME280;38816;51.142;-0.974;2022-07-23T05:16:23;100495.22;;;12.51;100.00
51439;BME280;38816;51.142;-0.974;2022-07-23T05:18:48;100497.81;;;12.52;100.00
51439;BME280;38816;51.142;-0.974;2022-07-23T05:21:14;100500.38;;;12.51;100.00
51439;BME280;38816;51.142;-0.974;2022-07-23T05:23:39;100493.44;;;12.45;100.00
51439;BME280;38816;51.142;-0.974;2022-07-23T05:26:07;100495.16;;;12.46;100.00
51439;BME280;38816;51.142;-0.974;2022-07-23T05:28:32;100502.03;;;12.46;100.00
51439;BME280;38816;51.142;-0.974;2022-07-23T05:30:58;100505.50;;;12.48;100.00
51439;BME280;38816;51.142;-0.974;2022-07-23T05:33:23;100496.94;;;12.52;100.00
51439;BME280;38816;51.142;-0.974;2022-07-23T05:35:49;100478.81;;;12.47;100.00
51439;BME280;38816;51.142;-0.974;2022-07-23T05:38:14;100494.50;;;12.62;100.00
51439;BME280;38816;51.142;-0.974;2022-07-23T05:40:40;100499.78;;;12.73;100.00
51439;BME280;38816;51.142;-0.974;2022-07-23T05:43:05;100481.78;;;12.76;100.00
51439;BME280;38816;51.142;-0.974;2022-07-23T05:45:30;100499.97;;;12.90;100.00
51439;BME280;38816;51.142;-0.974;2022-07-23T05:47:56;100497.53;;;13.02;100.00
51439;BME280;38816;51.142;-0.974;2022-07-23T05:50:22;100489.84;;;13.10;100.00
51439;BME280;38816;51.142;-0.974;2022-07-23T05:52:47;100499.44;;;13.20;100.00
51439;BME280;38816;51.142;-0.974;2022-07-23T05:55:12;100497.81;;;13.28;100.00
51439;BME280;38816;51.142;-0.974;2022-07-23T05:57:39;100492.72;;;13.33;100.00
51439;BME280;38816;51.142;-0.974;2022-07-23T06:00:07;100497.97;;;13.43;100.00
51439;BME280;38816;51.142;-0.974;2022-07-23T06:02:33;100498.03;;;13.53;100.00
51439;BME280;38816;51.142;-0.974;2022-07-23T06:04:58;100500.72;;;13.63;100.00
51439;BME280;38816;51.142;-0.974;2022-07-23T06:07:24;100499.06;;;13.73;100.00
51439;BME280;38816;51.142;-0.974;2022-07-23T06:09:49;100495.72;;;13.85;100.00
51439;BME280;38816;51.142;-0.974;2022-07-23T06:12:16;100494.94;;;13.97;100.00
51439;BME280;38816;51.142;-0.974;2022-07-23T06:14:42;100483.78;;;14.05;100.00
51439;BME280;38816;51.142;-0.974;2022-07-23T06:17:08;100484.72;;;14.18;99.32
51439;BME280;38816;51.142;-0.974;2022-07-23T06:19:33;100508.94;;;14.34;95.60
51439;BME280;38816;51.142;-0.974;2022-07-23T06:21:59;100510.72;;;14.47;90.77
51439;BME280;38816;51.142;-0.974;2022-07-23T06:24:24;100493.53;;;14.54;89.29
51439;BME280;38816;51.142;-0.974;2022-07-23T06:26:49;100503.09;;;14.70;88.76
51439;BME280;38816;51.142;-0.974;2022-07-23T06:29:15;100486.72;;;14.76;86.96
51439;BME280;38816;51.142;-0.974;2022-07-23T06:31:40;100493.69;;;14.87;85.92
51439;BME280;38816;51.142;-0.974;2022-07-23T06:34:06;100499.75;;;15.02;83.47
51439;BME280;38816;51.142;-0.974;2022-07-23T06:36:31;100498.91;;;15.15;83.20
51439;BME280;38816;51.142;-0.974;2022-07-23T06:38:57;100503.25;;;15.27;81.64
51439;BME280;38816;51.142;-0.974;2022-07-23T06:41:22;100492.03;;;15.38;81.46
51439;BME280;38816;51.142;-0.974;2022-07-23T06:43:48;100474.78;;;15.47;81.74
51439;BME280;38816;51.142;-0.974;2022-07-23T06:46:14;100481.66;;;15.57;79.82
51439;BME280;38816;51.142;-0.974;2022-07-23T06:48:39;100480.84;;;15.70;77.46
51439;BME280;38816;51.142;-0.974;2022-07-23T06:51:05;100482.53;;;15.89;75.67
51439;BME280;38816;51.142;-0.974;2022-07-23T06:53:30;100477.34;;;15.95;75.70
51439;BME280;38816;51.142;-0.974;2022-07-23T06:55:56;100488.53;;;16.16;75.43
51439;BME280;38816;51.142;-0.974;2022-07-23T06:58:21;100488.50;;;16.25;73.36
51439;BME280;38816;51.142;-0.974;2022-07-23T07:00:47;100496.25;;;16.42;71.72
51439;BME280;38816;51.142;-0.974;2022-07-23T07:03:12;100497.94;;;16.51;72.00
51439;BME280;38816;51.142;-0.974;2022-07-23T07:05:38;100506.56;;;16.62;72.01
51439;BME280;38816;51.142;-0.974;2022-07-23T07:08:05;100510.00;;;16.68;68.88
51439;BME280;38816;51.142;-0.974;2022-07-23T07:10:31;100505.66;;;16.74;69.74
51439;BME280;38816;51.142;-0.974;2022-07-23T07:12:56;100510.84;;;16.78;69.49
51439;BME280;38816;51.142;-0.974;2022-07-23T07:15:21;100501.34;;;16.73;69.98
51439;BME280;38816;51.142;-0.974;2022-07-23T07:17:47;100511.72;;;16.77;69.31
51439;BME280;38816;51.142;-0.974;2022-07-23T07:20:13;100516.84;;;16.88;68.87
51439;BME280;38816;51.142;-0.974;2022-07-23T07:22:38;100515.97;;;16.93;69.01
51439;BME280;38816;51.142;-0.974;2022-07-23T07:25:05;100516.78;;;17.02;69.08
51439;BME280;38816;51.142;-0.974;2022-07-23T07:27:31;100513.34;;;16.98;65.46
51439;BME280;38816;51.142;-0.974;2022-07-23T07:29:56;100525.44;;;17.04;66.58
51439;BME280;38816;51.142;-0.974;2022-07-23T07:32:22;100525.41;;;17.11;67.03
51439;BME280;38816;51.142;-0.974;2022-07-23T07:34:47;100520.16;;;17.20;67.55
51439;BME280;38816;51.142;-0.974;2022-07-23T07:37:13;100520.97;;;17.24;65.37
51439;BME280;38816;51.142;-0.974;2022-07-23T07:39:38;100522.69;;;17.27;65.20
51439;BME280;38816;51.142;-0.974;2022-07-23T07:42:04;100525.28;;;17.27;64.99
51439;BME280;38816;51.142;-0.974;2022-07-23T07:44:30;100509.72;;;17.24;64.74
51439;BME280;38816;51.142;-0.974;2022-07-23T07:46:55;100514.03;;;17.29;63.05
51439;BME280;38816;51.142;-0.974;2022-07-23T07:49:21;100529.59;;;17.32;62.94
51439;BME280;38816;51.142;-0.974;2022-07-23T07:51:46;100533.91;;;17.35;64.50
51439;BME280;38816;51.142;-0.974;2022-07-23T07:54:12;100524.31;;;17.41;63.18
51439;BME280;38816;51.142;-0.974;2022-07-23T07:56:37;100509.59;;;17.40;63.05
51439;BME280;38816;51.142;-0.974;2022-07-23T07:59:03;100524.22;;;17.55;64.15
51439;BME280;38816;51.142;-0.974;2022-07-23T08:01:28;100529.31;;;17.69;62.16
51439;BME280;38816;51.142;-0.974;2022-07-23T08:03:54;100524.97;;;17.71;60.36
51439;BME280;38816;51.142;-0.974;2022-07-23T08:06:19;100522.38;;;17.68;59.57
51439;BME280;38816;51.142;-0.974;2022-07-23T08:08:45;100526.69;;;17.74;60.07
51439;BME280;38816;51.142;-0.974;2022-07-23T08:11:10;100524.91;;;17.82;61.07
51439;BME280;38816;51.142;-0.974;2022-07-23T08:13:36;100519.59;;;17.94;61.03
51439;BME280;38816;51.142;-0.974;2022-07-23T08:16:02;100528.94;;;18.15;60.79
51439;BME280;38816;51.142;-0.974;2022-07-23T08:18:27;100521.84;;;18.29;60.49
51439;BME280;38816;51.142;-0.974;2022-07-23T08:20:52;100520.03;;;18.36;60.80
51439;BME280;38816;51.142;-0.974;2022-07-23T08:23:18;100530.38;;;18.43;60.39
51439;BME280;38816;51.142;-0.974;2022-07-23T08:25:45;100529.41;;;18.52;60.14
51439;BME280;38816;51.142;-0.974;2022-07-23T08:28:12;100525.03;;;18.56;58.64
51439;BME280;38816;51.142;-0.974;2022-07-23T08:30:39;100531.81;;;18.67;57.92
51439;BME280;38816;51.142;-0.974;2022-07-23T08:33:12;100526.63;;;18.70;58.51
51439;BME280;38816;51.142;-0.974;2022-07-23T08:35:41;100520.41;;;18.81;58.47
51439;BME280;38816;51.142;-0.974;2022-07-23T08:38:09;100514.13;;;18.95;58.63
51439;BME280;38816;51.142;-0.974;2022-07-23T08:40:37;100522.59;;;19.11;58.19
51439;BME280;38816;51.142;-0.974;2022-07-23T08:43:08;100532.06;;;19.17;56.91
51439;BME280;38816;51.142;-0.974;2022-07-23T08:45:39;100531.19;;;19.18;55.81
51439;BME280;38816;51.142;-0.974;2022-07-23T08:48:07;100495.75;;;19.06;55.80
51439;BME280;38816;51.142;-0.974;2022-07-23T08:50:35;100519.81;;;19.22;56.62
51439;BME280;38816;51.142;-0.974;2022-07-23T08:53:02;100510.31;;;19.18;56.99
51439;BME280;38816;51.142;-0.974;2022-07-23T08:55:29;100514.47;;;19.31;57.04
51439;BME280;38816;51.142;-0.974;2022-07-23T08:57:55;100536.88;;;19.46;56.13
51439;BME280;38816;51.142;-0.974;2022-07-23T09:00:21;100534.28;;;19.43;54.24
51439;BME280;38816;51.142;-0.974;2022-07-23T09:02:48;100518.69;;;19.40;54.30
51439;BME280;38816;51.142;-0.974;2022-07-23T09:05:15;100522.91;;;19.48;54.24
51439;BME280;38816;51.142;-0.974;2022-07-23T09:13:41;100524.22;;;19.76;54.11
51439;BME280;38816;51.142;-0.974;2022-07-23T09:16:18;100531.03;;;19.86;51.77
51439;BME280;38816;51.142;-0.974;2022-07-23T09:19:01;100530.97;;;19.90;51.15
51439;BME280;38816;51.142;-0.974;2022-07-23T09:21:33;100531.69;;;19.97;51.08
51439;BME280;38816;51.142;-0.974;2022-07-23T09:24:01;100521.22;;;19.98;50.87
51439;BME280;38816;51.142;-0.974;2022-07-23T09:26:32;100527.91;;;20.15;50.32
51439;BME280;38816;51.142;-0.974;2022-07-23T09:31:25;100534.75;;;20.22;49.94
51439;BME280;38816;51.142;-0.974;2022-07-23T09:33:51;100526.84;;;20.25;48.71
51439;BME280;38816;51.142;-0.974;2022-07-23T09:36:28;100524.09;;;20.33;48.62
51439;BME280;38816;51.142;-0.974;2022-07-23T09:38:53;100538.63;;;20.49;49.32
51439;BME280;38816;51.142;-0.974;2022-07-23T09:41:19;100530.69;;;20.54;49.03
51439;BME280;38816;51.142;-0.974;2022-07-23T09:43:44;100527.94;;;20.60;48.56
51439;BME280;38816;51.142;-0.974;2022-07-23T09:46:27;100529.47;;;20.70;48.85
51439;BME280;38816;51.142;-0.974;2022-07-23T09:48:54;100524.13;;;20.76;48.54
51439;BME280;38816;51.142;-0.974;2022-07-23T09:51:22;100523.22;;;20.77;49.20
51439;BME280;38816;51.142;-0.974;2022-07-23T09:53:52;100526.56;;;20.85;48.65
51439;BME280;38816;51.142;-0.974;2022-07-23T09:56:20;100535.00;;;20.96;49.69
51439;BME280;38816;51.142;-0.974;2022-07-23T09:58:49;100530.31;;;21.12;49.02
51439;BME280;38816;51.142;-0.974;2022-07-23T10:01:16;100536.00;;;21.31;48.63
51439;BME280;38816;51.142;-0.974;2022-07-23T10:03:43;100531.47;;;21.39;47.52
51439;BME280;38816;51.142;-0.974;2022-07-23T10:06:09;100522.75;;;21.39;46.98
51439;BME280;38816;51.142;-0.974;2022-07-23T10:08:35;100520.78;;;21.48;48.01
51439;BME280;38816;51.142;-0.974;2022-07-23T10:11:03;100524.66;;;21.68;45.70
51439;BME280;38816;51.142;-0.974;2022-07-23T10:13:29;100525.13;;;21.84;46.54
51439;BME280;38816;51.142;-0.974;2022-07-23T10:16:15;100529.25;;;21.92;43.54
51439;BME280;38816;51.142;-0.974;2022-07-23T10:18:41;100541.00;;;21.78;46.50
51439;BME280;38816;51.142;-0.974;2022-07-23T10:21:08;100537.28;;;21.86;46.79
51439;BME280;38816;51.142;-0.974;2022-07-23T10:24:01;100525.06;;;21.87;47.12
51439;BME280;38816;51.142;-0.974;2022-07-23T10:26:52;100521.94;;;22.07;45.61
51439;BME280;38816;51.142;-0.974;2022-07-23T10:35:10;100515.97;;;22.34;46.86
51439;BME280;38816;51.142;-0.974;2022-07-23T10:37:39;100498.31;;;22.41;47.00
51439;BME280;38816;51.142;-0.974;2022-07-23T10:40:15;100512.72;;;22.57;46.63
51439;BME280;38816;51.142;-0.974;2022-07-23T10:42:45;100506.63;;;22.57;45.66
51439;BME280;38816;51.142;-0.974;2022-07-23T10:45:34;100512.19;;;22.44;46.47
51439;BME280;38816;51.142;-0.974;2022-07-23T10:48:14;100507.56;;;22.54;48.03
51439;BME280;38816;51.142;-0.974;2022-07-23T10:50:41;100497.66;;;22.64;46.03
51439;BME280;38816;51.142;-0.974;2022-07-23T10:58:04;100494.97;;;22.67;47.03
51439;BME280;38816;51.142;-0.974;2022-07-23T11:00:34;100504.78;;;22.90;47.35
51439;BME280;38816;51.142;-0.974;2022-07-23T11:03:02;100497.78;;;23.18;47.19
51439;BME280;38816;51.142;-0.974;2022-07-23T11:05:45;100493.72;;;23.36;46.08
51439;BME280;38816;51.142;-0.974;2022-07-23T11:08:12;100488.16;;;23.45;46.55
51439;BME280;38816;51.142;-0.974;2022-07-23T11:10:50;100500.38;;;23.73;45.88
51439;BME280;38816;51.142;-0.974;2022-07-23T11:36:53;100482.03;;;24.23;43.65
51439;BME280;38816;51.142;-0.974;2022-07-23T11:39:20;100480.59;;;24.14;43.59
51439;BME280;38816;51.142;-0.974;2022-07-23T11:41:46;100485.13;;;24.34;44.58
51439;BME280;38816;51.142;-0.974;2022-07-23T11:44:28;100476.41;;;24.57;45.33
51439;BME280;38816;51.142;-0.974;2022-07-23T11:46:59;100477.75;;;24.91;43.97
51439;BME280;38816;51.142;-0.974;2022-07-23T11:49:25;100463.06;;;25.09;43.66
51439;BME280;38816;51.142;-0.974;2022-07-23T11:52:07;100469.75;;;25.16;41.21
51439;BME280;38816;51.142;-0.974;2022-07-23T11:54:35;100458.28;;;25.18;42.83
51439;BME280;38816;51.142;-0.974;2022-07-23T11:57:02;100463.13;;;25.49;42.79
51439;BME280;38816;51.142;-0.974;2022-07-23T11:59:32;100466.59;;;25.92;42.40
51439;BME280;38816;51.142;-0.974;2022-07-23T12:02:05;100456.69;;;26.18;40.41
51439;BME280;38816;51.142;-0.974;2022-07-23T12:04:41;100458.44;;;26.57;41.07
51439;BME280;38816;51.142;-0.974;2022-07-23T12:07:31;100471.31;;;27.00;39.76
51439;BME280;38816;51.142;-0.974;2022-07-23T12:10:23;100471.97;;;27.06;38.20
51439;BME280;38816;51.142;-0.974;2022-07-23T12:12:53;100462.16;;;26.90;39.46
51439;BME280;38816;51.142;-0.974;2022-07-23T12:15:40;100471.53;;;27.15;39.70
51439;BME280;38816;51.142;-0.974;2022-07-23T12:18:08;100458.25;;;26.80;38.35
51439;BME280;38816;51.142;-0.974;2022-07-23T12:20:40;100459.16;;;26.79;40.15
51439;BME280;38816;51.142;-0.974;2022-07-23T12:23:08;100462.69;;;26.97;40.25
51439;BME280;38816;51.142;-0.974;2022-07-23T12:25:36;100469.97;;;27.47;40.27
51439;BME280;38816;51.142;-0.974;2022-07-23T12:28:04;100468.97;;;27.67;38.19
51439;BME280;38816;51.142;-0.974;2022-07-23T12:30:32;100466.88;;;27.73;38.67
51439;BME280;38816;51.142;-0.974;2022-07-23T12:32:58;100471.28;;;27.56;39.13
51439;BME280;38816;51.142;-0.974;2022-07-23T12:35:34;100470.25;;;27.41;39.57
51439;BME280;38816;51.142;-0.974;2022-07-23T12:38:03;100471.19;;;27.04;39.38
51439;BME280;38816;51.142;-0.974;2022-07-23T12:43:25;100459.19;;;27.51;41.50
51439;BME280;38816;51.142;-0.974;2022-07-23T12:45:57;100455.78;;;27.84;40.35
51439;BME280;38816;51.142;-0.974;2022-07-23T12:48:28;100439.94;;;27.84;40.10
51439;BME280;38816;51.142;-0.974;2022-07-23T12:50:58;100429.03;;;27.90;40.12
51439;BME280;38816;51.142;-0.974;2022-07-23T12:53:39;100443.75;;;28.12;39.67
51439;BME280;38816;51.142;-0.974;2022-07-23T13:01:10;100440.16;;;28.13;39.10
51439;BME280;38816;51.142;-0.974;2022-07-23T13:04:14;100450.59;;;28.32;39.51
51439;BME280;38816;51.142;-0.974;2022-07-23T13:07:05;100451.94;;;28.23;40.35
51439;BME280;38816;51.142;-0.974;2022-07-23T13:09:32;100465.53;;;27.99;39.82
51439;BME280;38816;51.142;-0.974;2022-07-23T13:11:58;100460.50;;;27.43;41.23
51439;BME280;38816;51.142;-0.974;2022-07-23T13:14:25;100454.19;;;27.45;41.96
51439;BME280;38816;51.142;-0.974;2022-07-23T13:16:52;100473.16;;;27.54;42.38
51439;BME280;38816;51.142;-0.974;2022-07-23T13:19:19;100463.81;;;27.46;39.90
51439;BME280;38816;51.142;-0.974;2022-07-23T13:21:45;100462.16;;;26.90;42.02
51439;BME280;38816;51.142;-0.974;2022-07-23T13:24:11;100463.84;;;26.91;40.98
51439;BME280;38816;51.142;-0.974;2022-07-23T13:26:37;100454.31;;;26.70;42.27